sensor_id;sensor_type;location;lat;lon;timestamp;pressure;altitude;pressure_sealevel;temperature;humidity
56713;BME280;42589;45.536;9.032;2023-02-02T00:02:25;100137.88;;;14.46;44.27
56713;BME280;42589;45.536;9.032;2023-02-02T00:05:28;100140.09;;;13.93;45.36
56713;BME280;42589;45.536;9.032;2023-02-02T00:08:29;100137.06;;;14.04;45.70
56713;BME280;42589;45.536;9.032;2023-02-02T00:11:30;100133.25;;;14.56;43.93
56713;BME280;42589;45.536;9.032;2023-02-02T00:14:30;100137.72;;;14.63;43.76
56713;BME280;42589;45.536;9.032;2023-02-02T00:17:31;100147.09;;;14.43;43.63
56713;BME280;42589;45.536;9.032;2023-02-02T00:20:33;100140.75;;;14.69;42.84
56713;BME280;42589;45.536;9.032;2023-02-02T00:23:37;100138.91;;;14.61;43.38
56713;BME280;42589;45.536;9.032;2023-02-02T00:26:39;100122.69;;;14.46;42.53
56713;BME280;42589;45.536;9.032;2023-02-02T00:29:40;100124.53;;;14.29;42.82
56713;BME280;42589;45.536;9.032;2023-02-02T00:32:41;100135.22;;;14.37;43.12
56713;BME280;42589;45.536;9.032;2023-02-02T00:35:42;100127.56;;;14.18;43.27
56713;BME280;42589;45.536;9.032;2023-02-02T00:38:44;100112.69;;;14.07;43.13
56713;BME280;42589;45.536;9.032;2023-02-02T00:41:45;100126.72;;;13.93;43.27
56713;BME280;42589;45.536;9.032;2023-02-02T00:44:47;100126.56;;;14.03;42.67
56713;BME280;42589;45.536;9.032;2023-02-02T00:48:10;100136.91;;;13.98;42.65
56713;BME280;42589;45.536;9.032;2023-02-02T00:51:10;100133.91;;;13.92;42.12
56713;BME280;42589;45.536;9.032;2023-02-02T00:54:12;100130.00;;;13.62;43.58
56713;BME280;42589;45.536;9.032;2023-02-02T00:57:13;100135.56;;;13.93;42.93
56713;BME280;42589;45.536;9.032;2023-02-02T01:00:16;100126.38;;;13.88;42.43
56713;BME280;42589;45.536;9.032;2023-02-02T01:03:17;100131.56;;;13.89;42.13
56713;BME280;42589;45.536;9.032;2023-02-02T01:06:18;100138.06;;;13.87;42.46
56713;BME280;42589;45.536;9.032;2023-02-02T01:09:19;100133.72;;;13.86;43.16
56713;BME280;42589;45.536;9.032;2023-02-02T01:12:20;100142.88;;;13.67;42.93
56713;BME280;42589;45.536;9.032;2023-02-02T01:15:21;100142.72;;;13.85;42.26
56713;BME280;42589;45.536;9.032;2023-02-02T01:18:23;100135.06;;;13.74;42.66
56713;BME280;42589;45.536;9.032;2023-02-02T01:21:24;100146.81;;;13.04;44.01
56713;BME280;42589;45.536;9.032;2023-02-02T01:24:26;100134.66;;;12.75;44.87
56713;BME280;42589;45.536;9.032;2023-02-02T01:27:27;100141.41;;;12.36;46.33
56713;BME280;42589;45.536;9.032;2023-02-02T01:30:28;100144.72;;;12.90;45.40
56713;BME280;42589;45.536;9.032;2023-02-02T01:33:29;100158.81;;;12.74;45.37
56713;BME280;42589;45.536;9.032;2023-02-02T01:36:31;100144.34;;;13.19;44.75
56713;BME280;42589;45.536;9.032;2023-02-02T01:39:32;100148.34;;;13.07;44.47
56713;BME280;42589;45.536;9.032;2023-02-02T01:42:32;100151.66;;;13.09;44.70
56713;BME280;42589;45.536;9.032;2023-02-02T01:45:35;100152.53;;;13.17;44.39
56713;BME280;42589;45.536;9.032;2023-02-02T01:48:37;100156.44;;;12.63;46.27
56713;BME280;42589;45.536;9.032;2023-02-02T01:51:51;100140.19;;;12.82;45.23
56713;BME280;42589;45.536;9.032;2023-02-02T01:54:56;100141.84;;;13.60;43.76
56713;BME280;42589;45.536;9.032;2023-02-02T01:57:59;100146.56;;;14.39;42.51
56713;BME280;42589;45.536;9.032;2023-02-02T02:01:04;100130.88;;;14.20;42.11
56713;BME280;42589;45.536;9.032;2023-02-02T02:04:05;100130.69;;;13.89;42.70
56713;BME280;42589;45.536;9.032;2023-02-02T02:07:06;100138.75;;;14.46;41.17
56713;BME280;42589;45.536;9.032;2023-02-02T02:10:08;100134.41;;;14.53;40.90
56713;BME280;42589;45.536;9.032;2023-02-02T02:13:09;100137.59;;;14.24;41.79
56713;BME280;42589;45.536;9.032;2023-02-02T02:16:19;100140.91;;;14.26;42.13
56713;BME280;42589;45.536;9.032;2023-02-02T02:42:56;100120.66;;;12.03;45.48
56713;BME280;42589;45.536;9.032;2023-02-02T02:45:58;100121.47;;;12.22;45.37
56713;BME280;42589;45.536;9.032;2023-02-02T02:49:00;100126.75;;;12.40;45.32
56713;BME280;42589;45.536;9.032;2023-02-02T02:52:01;100120.06;;;12.62;44.36
56713;BME280;42589;45.536;9.032;2023-02-02T02:55:03;100109.25;;;12.63;44.05
56713;BME280;42589;45.536;9.032;2023-02-02T02:58:06;100123.81;;;12.77;44.03
56713;BME280;42589;45.536;9.032;2023-02-02T03:01:20;100122.50;;;13.82;41.97
56713;BME280;42589;45.536;9.032;2023-02-02T03:04:28;100132.31;;;13.49;42.02
56713;BME280;42589;45.536;9.032;2023-02-02T03:07:49;100134.72;;;14.42;40.01
56713;BME280;42589;45.536;9.032;2023-02-02T03:10:52;100127.72;;;14.16;40.55
56713;BME280;42589;45.536;9.032;2023-02-02T03:13:55;100143.94;;;14.15;40.25
56713;BME280;42589;45.536;9.032;2023-02-02T03:16:57;100135.06;;;14.23;39.46
56713;BME280;42589;45.536;9.032;2023-02-02T03:19:58;100136.72;;;14.24;39.28
56713;BME280;42589;45.536;9.032;2023-02-02T03:22:59;100149.75;;;14.10;39.24
56713;BME280;42589;45.536;9.032;2023-02-02T03:26:00;100147.25;;;13.84;40.71
56713;BME280;42589;45.536;9.032;2023-02-02T03:29:01;100154.09;;;13.70;40.73
56713;BME280;42589;45.536;9.032;2023-02-02T03:32:03;100152.53;;;13.60;40.76
56713;BME280;42589;45.536;9.032;2023-02-02T03:35:05;100152.22;;;13.63;40.71
56713;BME280;42589;45.536;9.032;2023-02-02T03:38:06;100148.16;;;13.51;40.31
56713;BME280;42589;45.536;9.032;2023-02-02T03:41:07;100140.97;;;13.43;40.30
56713;BME280;42589;45.536;9.032;2023-02-02T03:44:08;100148.03;;;13.18;40.43
56713;BME280;42589;45.536;9.032;2023-02-02T03:47:09;100143.00;;;13.15;40.45
56713;BME280;42589;45.536;9.032;2023-02-02T03:50:11;100137.53;;;13.16;39.95
56713;BME280;42589;45.536;9.032;2023-02-02T03:53:12;100142.22;;;13.22;39.76
56713;BME280;42589;45.536;9.032;2023-02-02T03:56:13;100132.97;;;13.00;40.26
56713;BME280;42589;45.536;9.032;2023-02-02T03:59:15;100148.31;;;12.72;40.63
56713;BME280;42589;45.536;9.032;2023-02-02T04:02:16;100140.22;;;12.90;39.82
56713;BME280;42589;45.536;9.032;2023-02-02T04:05:17;100138.41;;;12.91;38.41
56713;BME280;42589;45.536;9.032;2023-02-02T04:08:18;100134.28;;;12.70;38.63
56713;BME280;42589;45.536;9.032;2023-02-02T04:11:20;100138.59;;;12.37;39.38
56713;BME280;42589;45.536;9.032;2023-02-02T04:14:21;100130.09;;;12.68;38.61
56713;BME280;42589;45.536;9.032;2023-02-02T04:17:22;100129.56;;;12.56;39.11
56713;BME280;42589;45.536;9.032;2023-02-02T04:20:23;100119.25;;;12.17;39.50
56713;BME280;42589;45.536;9.032;2023-02-02T04:23:25;100128.03;;;12.27;38.61
56713;BME280;42589;45.536;9.032;2023-02-02T04:26:26;100129.69;;;12.54;37.68
56713;BME280;42589;45.536;9.032;2023-02-02T04:29:27;100129.25;;;12.59;36.84
56713;BME280;42589;45.536;9.032;2023-02-02T04:32:29;100129.66;;;12.46;36.72
56713;BME280;42589;45.536;9.032;2023-02-02T04:35:32;100120.91;;;12.62;36.10
56713;BME280;42589;45.536;9.032;2023-02-02T04:38:33;100133.06;;;11.31;36.38
56713;BME280;42589;45.536;9.032;2023-02-02T04:41:34;100137.16;;;10.98;36.25
56713;BME280;42589;45.536;9.032;2023-02-02T04:44:36;100121.28;;;11.97;34.66
56713;BME280;42589;45.536;9.032;2023-02-02T04:47:36;100129.47;;;12.04;33.78
56713;BME280;42589;45.536;9.032;2023-02-02T04:50:37;100132.47;;;12.45;33.21
56713;BME280;42589;45.536;9.032;2023-02-02T04:53:39;100125.56;;;12.60;32.41
56713;BME280;42589;45.536;9.032;2023-02-02T04:56:40;100127.47;;;13.53;30.98
56713;BME280;42589;45.536;9.032;2023-02-02T04:59:41;100141.16;;;13.07;30.68
56713;BME280;42589;45.536;9.032;2023-02-02T05:02:43;100145.13;;;13.37;29.68
56713;BME280;42589;45.536;9.032;2023-02-02T05:05:44;100146.94;;;13.96;28.72
56713;BME280;42589;45.536;9.032;2023-02-02T05:08:46;100156.28;;;14.40;29.20
56713;BME280;42589;45.536;9.032;2023-02-02T05:11:47;100154.44;;;14.33;27.85
56713;BME280;42589;45.536;9.032;2023-02-02T05:14:48;100158.13;;;14.15;29.01
56713;BME280;42589;45.536;9.032;2023-02-02T05:17:49;100165.44;;;13.81;29.07
56713;BME280;42589;45.536;9.032;2023-02-02T05:20:51;100155.97;;;14.03;29.30
56713;BME280;42589;45.536;9.032;2023-02-02T05:23:51;100171.78;;;13.72;28.47
56713;BME280;42589;45.536;9.032;2023-02-02T05:26:52;100167.03;;;13.49;28.34
56713;BME280;42589;45.536;9.032;2023-02-02T05:29:57;100174.91;;;13.59;27.96
56713;BME280;42589;45.536;9.032;2023-02-02T05:32:58;100175.59;;;13.61;28.00
56713;BME280;42589;45.536;9.032;2023-02-02T05:35:59;100190.41;;;14.30;27.68
56713;BME280;42589;45.536;9.032;2023-02-02T05:39:00;100181.69;;;14.20;27.77
56713;BME280;42589;45.536;9.032;2023-02-02T05:42:01;100187.28;;;13.26;28.47
56713;BME280;42589;45.536;9.032;2023-02-02T05:45:09;100176.66;;;12.73;28.89
56713;BME280;42589;45.536;9.032;2023-02-02T05:48:12;100189.06;;;13.17;28.31
56713;BME280;42589;45.536;9.032;2023-02-02T05:51:26;100204.72;;;14.05;27.48
56713;BME280;42589;45.536;9.032;2023-02-02T05:54:28;100207.22;;;13.90;28.07
56713;BME280;42589;45.536;9.032;2023-02-02T05:57:29;100208.03;;;13.82;28.36
56713;BME280;42589;45.536;9.032;2023-02-02T06:00:29;100212.06;;;13.94;27.76
56713;BME280;42589;45.536;9.032;2023-02-02T06:03:30;100218.78;;;13.99;27.85
56713;BME280;42589;45.536;9.032;2023-02-02T06:06:31;100217.59;;;13.51;29.35
56713;BME280;42589;45.536;9.032;2023-02-02T06:09:34;100207.22;;;13.39;30.01
56713;BME280;42589;45.536;9.032;2023-02-02T06:12:35;100214.72;;;13.36;28.73
56713;BME280;42589;45.536;9.032;2023-02-02T06:15:35;100220.41;;;13.41;29.35
56713;BME280;42589;45.536;9.032;2023-02-02T06:18:36;100215.69;;;13.27;28.03
56713;BME280;42589;45.536;9.032;2023-02-02T06:21:38;100223.31;;;12.95;28.27
56713;BME280;42589;45.536;9.032;2023-02-02T06:24:39;100206.81;;;12.48;28.58
56713;BME280;42589;45.536;9.032;2023-02-02T06:27:40;100210.91;;;12.60;28.84
56713;BME280;42589;45.536;9.032;2023-02-02T06:30:44;100221.34;;;12.97;27.83
56713;BME280;42589;45.536;9.032;2023-02-02T06:33:47;100221.91;;;12.83;27.65
56713;BME280;42589;45.536;9.032;2023-02-02T06:36:48;100215.47;;;13.54;26.96
56713;BME280;42589;45.536;9.032;2023-02-02T06:39:49;100223.06;;;13.83;27.11
56713;BME280;42589;45.536;9.032;2023-02-02T06:42:57;100206.47;;;13.55;27.48
56713;BME280;42589;45.536;9.032;2023-02-02T06:46:02;100216.53;;;13.01;27.82
56713;BME280;42589;45.536;9.032;2023-02-02T06:49:03;100217.56;;;12.82;28.26
56713;BME280;42589;45.536;9.032;2023-02-02T06:52:05;100224.50;;;13.69;27.45
56713;BME280;42589;45.536;9.032;2023-02-02T06:55:06;100221.88;;;13.78;26.55
56713;BME280;42589;45.536;9.032;2023-02-02T06:58:07;100218.75;;;13.90;26.27
56713;BME280;42589;45.536;9.032;2023-02-02T07:01:11;100227.41;;;13.08;27.24
56713;BME280;42589;45.536;9.032;2023-02-02T07:04:12;100239.09;;;13.41;26.59
56713;BME280;42589;45.536;9.032;2023-02-02T07:07:14;100223.38;;;13.38;26.72
56713;BME280;42589;45.536;9.032;2023-02-02T07:10:15;100226.41;;;13.85;26.22
56713;BME280;42589;45.536;9.032;2023-02-02T07:13:16;100230.88;;;13.68;26.26
56713;BME280;42589;45.536;9.032;2023-02-02T07:16:18;100233.66;;;13.59;26.60
56713;BME280;42589;45.536;9.032;2023-02-02T07:19:18;100221.44;;;13.22;26.74
56713;BME280;42589;45.536;9.032;2023-02-02T07:22:20;100225.28;;;13.19;26.38
56713;BME280;42589;45.536;9.032;2023-02-02T07:25:22;100233.44;;;13.86;25.94
56713;BME280;42589;45.536;9.032;2023-02-02T07:28:23;100238.16;;;14.33;25.31
56713;BME280;42589;45.536;9.032;2023-02-02T07:31:25;100243.00;;;15.12;24.19
56713;BME280;42589;45.536;9.032;2023-02-02T07:34:26;100241.69;;;14.99;24.28
56713;BME280;42589;45.536;9.032;2023-02-02T07:37:27;100224.81;;;14.82;24.61
56713;BME280;42589;45.536;9.032;2023-02-02T07:40:29;100241.50;;;15.09;24.40
56713;BME280;42589;45.536;9.032;2023-02-02T07:43:29;100244.13;;;16.12;23.37
56713;BME280;42589;45.536;9.032;2023-02-02T07:46:30;100250.44;;;15.49;23.93
56713;BME280;42589;45.536;9.032;2023-02-02T07:49:31;100242.69;;;15.70;23.55
56713;BME280;42589;45.536;9.032;2023-02-02T07:52:32;100250.31;;;15.82;23.34
56713;BME280;42589;45.536;9.032;2023-02-02T07:55:33;100235.59;;;15.30;24.17
56713;BME280;42589;45.536;9.032;2023-02-02T07:58:35;100253.19;;;16.11;23.61
56713;BME280;42589;45.536;9.032;2023-02-02T08:01:37;100248.44;;;16.13;23.43
56713;BME280;42589;45.536;9.032;2023-02-02T08:04:37;100260.03;;;16.37;23.32
56713;BME280;42589;45.536;9.032;2023-02-02T08:07:38;100259.63;;;15.54;23.95
56713;BME280;42589;45.536;9.032;2023-02-02T08:10:49;100277.16;;;16.05;23.92
56713;BME280;42589;45.536;9.032;2023-02-02T08:13:52;100279.50;;;16.08;23.69
56713;BME280;42589;45.536;9.032;2023-02-02T08:16:53;100268.19;;;16.66;23.20
56713;BME280;42589;45.536;9.032;2023-02-02T08:19:54;100276.44;;;16.11;23.95
56713;BME280;42589;45.536;9.032;2023-02-02T08:22:55;100267.09;;;16.07;23.79
56713;BME280;42589;45.536;9.032;2023-02-02T08:29:11;100268.72;;;16.39;23.38
56713;BME280;42589;45.536;9.032;2023-02-02T08:32:11;100265.34;;;15.91;23.92
56713;BME280;42589;45.536;9.032;2023-02-02T08:35:13;100263.28;;;16.01;23.82
56713;BME280;42589;45.536;9.032;2023-02-02T08:38:14;100270.69;;;16.68;23.07
56713;BME280;42589;45.536;9.032;2023-02-02T08:41:19;100266.75;;;16.10;24.07
56713;BME280;42589;45.536;9.032;2023-02-02T08:44:19;100271.13;;;15.80;24.44
56713;BME280;42589;45.536;9.032;2023-02-02T08:47:20;100267.41;;;16.12;23.92
56713;BME280;42589;45.536;9.032;2023-02-02T08:50:21;100274.16;;;15.68;24.21
56713;BME280;42589;45.536;9.032;2023-02-02T08:53:23;100280.63;;;15.82;24.45
56713;BME280;42589;45.536;9.032;2023-02-02T08:56:24;100289.06;;;15.71;24.20
56713;BME280;42589;45.536;9.032;2023-02-02T08:59:25;100291.44;;;16.05;24.56
56713;BME280;42589;45.536;9.032;2023-02-02T09:02:27;100288.28;;;16.93;23.83
56713;BME280;42589;45.536;9.032;2023-02-02T09:05:28;100290.56;;;15.73;24.68
56713;BME280;42589;45.536;9.032;2023-02-02T09:08:29;100298.91;;;16.87;23.79
56713;BME280;42589;45.536;9.032;2023-02-02T09:11:33;100311.63;;;16.47;24.14
56713;BME280;42589;45.536;9.032;2023-02-02T09:14:35;100302.06;;;16.67;24.10
56713;BME280;42589;45.536;9.032;2023-02-02T09:17:37;100293.16;;;17.43;23.03
56713;BME280;42589;45.536;9.032;2023-02-02T09:20:38;100285.31;;;18.22;22.60
56713;BME280;42589;45.536;9.032;2023-02-02T09:23:42;100292.13;;;19.32;21.90
56713;BME280;42589;45.536;9.032;2023-02-02T09:26:44;100300.03;;;19.40;22.36
56713;BME280;42589;45.536;9.032;2023-02-02T09:29:44;100296.03;;;19.29;23.70
56713;BME280;42589;45.536;9.032;2023-02-02T09:32:48;100300.19;;;18.18;24.50
56713;BME280;42589;45.536;9.032;2023-02-02T09:35:49;100301.22;;;17.28;24.89
56713;BME280;42589;45.536;9.032;2023-02-02T09:38:51;100304.38;;;17.31;24.78
56713;BME280;42589;45.536;9.032;2023-02-02T09:51:52;100312.56;;;19.54;22.69
56713;BME280;42589;45.536;9.032;2023-02-02T09:55:12;100325.81;;;19.49;24.58
56713;BME280;42589;45.536;9.032;2023-02-02T09:58:47;100316.69;;;18.94;25.81
56713;BME280;42589;45.536;9.032;2023-02-02T10:01:51;100326.28;;;19.31;25.98
56713;BME280;42589;45.536;9.032;2023-02-02T10:05:01;100323.25;;;18.48;26.87
56713;BME280;42589;45.536;9.032;2023-02-02T10:08:05;100304.06;;;18.73;26.75
56713;BME280;42589;45.536;9.032;2023-02-02T10:14:48;100317.31;;;18.17;27.48
56713;BME280;42589;45.536;9.032;2023-02-02T10:17:55;100318.66;;;17.76;28.26
56713;BME280;42589;45.536;9.032;2023-02-02T10:21:05;100328.22;;;18.66;27.47
56713;BME280;42589;45.536;9.032;2023-02-02T10:24:25;100333.38;;;18.68;27.59
56713;BME280;42589;45.536;9.032;2023-02-02T10:27:38;100327.38;;;18.44;27.84
56713;BME280;42589;45.536;9.032;2023-02-02T10:30:54;100339.03;;;18.51;27.68
56713;BME280;42589;45.536;9.032;2023-02-02T10:37:36;100322.38;;;18.63;27.07
56713;BME280;42589;45.536;9.032;2023-02-02T10:41:05;100325.88;;;18.78;26.37
56713;BME280;42589;45.536;9.032;2023-02-02T10:44:31;100331.06;;;18.79;26.85
56713;BME280;42589;45.536;9.032;2023-02-02T10:47:36;100314.59;;;19.17;26.93
56713;BME280;42589;45.536;9.032;2023-02-02T10:50:42;100301.50;;;19.14;27.11
56713;BME280;42589;45.536;9.032;2023-02-02T10:53:47;100318.22;;;19.03;27.13
56713;BME280;42589;45.536;9.032;2023-02-02T10:56:51;100316.81;;;19.07;27.17
56713;BME280;42589;45.536;9.032;2023-02-02T11:03:13;100306.41;;;18.40;27.64
56713;BME280;42589;45.536;9.032;2023-02-02T11:06:14;100309.41;;;19.16;27.39
56713;BME280;42589;45.536;9.032;2023-02-02T11:09:39;100314.53;;;19.39;27.32
56713;BME280;42589;45.536;9.032;2023-02-02T11:12:43;100305.06;;;19.84;26.83
56713;BME280;42589;45.536;9.032;2023-02-02T11:15:46;100307.56;;;19.79;26.78
56713;BME280;42589;45.536;9.032;2023-02-02T11:18:47;100294.97;;;19.58;27.08
56713;BME280;42589;45.536;9.032;2023-02-02T11:21:55;100295.72;;;19.17;27.41
56713;BME280;42589;45.536;9.032;2023-02-02T11:24:57;100292.91;;;20.02;26.11
56713;BME280;42589;45.536;9.032;2023-02-02T11:28:09;100284.34;;;19.91;26.32
56713;BME280;42589;45.536;9.032;2023-02-02T11:31:12;100288.69;;;19.79;25.84
56713;BME280;42589;45.536;9.032;2023-02-02T11:34:28;100289.41;;;20.08;25.00
56713;BME280;42589;45.536;9.032;2023-02-02T11:37:31;100292.94;;;20.15;24.88
56713;BME280;42589;45.536;9.032;2023-02-02T11:44:03;100292.16;;;20.34;24.30
56713;BME280;42589;45.536;9.032;2023-02-02T11:47:05;100285.81;;;20.69;24.04
56713;BME280;42589;45.536;9.032;2023-02-02T11:50:14;100275.03;;;20.01;24.07
56713;BME280;42589;45.536;9.032;2023-02-02T11:53:35;100267.94;;;21.01;23.95
56713;BME280;42589;45.536;9.032;2023-02-02T11:56:39;100270.94;;;20.11;24.71
56713;BME280;42589;45.536;9.032;2023-02-02T11:59:43;100265.81;;;20.36;24.69
56713;BME280;42589;45.536;9.032;2023-02-02T12:02:48;100263.03;;;20.10;24.72
56713;BME280;42589;45.536;9.032;2023-02-02T12:05:48;100243.69;;;19.52;25.15
56713;BME280;42589;45.536;9.032;2023-02-02T12:08:52;100253.19;;;19.06;25.29
56713;BME280;42589;45.536;9.032;2023-02-02T12:12:04;100235.97;;;19.42;24.73
56713;BME280;42589;45.536;9.032;2023-02-02T12:15:46;100245.69;;;19.71;23.86
56713;BME280;42589;45.536;9.032;2023-02-02T12:19:09;100235.59;;;18.82;22.48
56713;BME280;42589;45.536;9.032;2023-02-02T12:26:04;100225.00;;;18.59;22.49
56713;BME280;42589;45.536;9.032;2023-02-02T12:36:05;100218.44;;;20.14;21.90
56713;BME280;42589;45.536;9.032;2023-02-02T12:39:16;100216.59;;;21.01;21.52
56713;BME280;42589;45.536;9.032;2023-02-02T12:42:32;100204.28;;;21.31;21.71
56713;BME280;42589;45.536;9.032;2023-02-02T12:45:45;100208.09;;;20.91;22.25
56713;BME280;42589;45.536;9.032;2023-02-02T12:51:53;100223.22;;;20.32;22.78
56713;BME280;42589;45.536;9.032;2023-02-02T12:55:20;100215.50;;;21.28;21.97
56713;BME280;42589;45.536;9.032;2023-02-02T13:11:50;100221.47;;;19.49;24.73
56713;BME280;42589;45.536;9.032;2023-02-02T13:14:56;100229.50;;;19.36;24.76
56713;BME280;42589;45.536;9.032;2023-02-02T13:17:59;100230.03;;;19.60;25.56
56713;BME280;42589;45.536;9.032;2023-02-02T13:21:06;100222.25;;;19.37;26.30
56713;BME280;42589;45.536;9.032;2023-02-02T13:24:11;100225.75;;;20.86;24.77
56713;BME280;42589;45.536;9.032;2023-02-02T13:27:20;100213.72;;;20.56;24.95
56713;BME280;42589;45.536;9.032;2023-02-02T13:33:31;100204.94;;;21.07;24.26
56713;BME280;42589;45.536;9.032;2023-02-02T13:36:34;100203.72;;;20.83;24.62
56713;BME280;42589;45.536;9.032;2023-02-02T13:39:44;100204.63;;;21.55;23.85
56713;BME280;42589;45.536;9.032;2023-02-02T13:43:11;100195.16;;;20.99;24.31
56713;BME280;42589;45.536;9.032;2023-02-02T13:49:37;100199.16;;;20.70;24.89
56713;BME280;42589;45.536;9.032;2023-02-02T13:52:52;100188.81;;;19.66;25.73
56713;BME280;42589;45.536;9.032;2023-02-02T13:56:08;100191.81;;;20.04;25.17
56713;BME280;42589;45.536;9.032;2023-02-02T14:02:51;100182.09;;;21.03;24.78
56713;BME280;42589;45.536;9.032;2023-02-02T14:09:16;100169.03;;;20.93;25.28
56713;BME280;42589;45.536;9.032;2023-02-02T14:12:27;100162.63;;;18.77;27.55
56713;BME280;42589;45.536;9.032;2023-02-02T14:15:42;100164.22;;;20.89;25.52
56713;BME280;42589;45.536;9.032;2023-02-02T14:18:51;100166.84;;;21.28;25.35
56713;BME280;42589;45.536;9.032;2023-02-02T14:28:44;100171.78;;;21.51;25.58
56713;BME280;42589;45.536;9.032;2023-02-02T14:31:53;100171.56;;;20.68;26.44
56713;BME280;42589;45.536;9.032;2023-02-02T14:34:58;100179.84;;;20.33;26.42
56713;BME280;42589;45.536;9.032;2023-02-02T14:38:32;100184.88;;;21.54;25.12
56713;BME280;42589;45.536;9.032;2023-02-02T14:42:21;100178.97;;;21.06;25.88
56713;BME280;42589;45.536;9.032;2023-02-02T14:45:47;100178.47;;;21.81;25.64
56713;BME280;42589;45.536;9.032;2023-02-02T14:51:59;100170.31;;;19.63;28.08
56713;BME280;42589;45.536;9.032;2023-02-02T14:55:01;100171.28;;;21.09;26.59
56713;BME280;42589;45.536;9.032;2023-02-02T14:58:04;100180.13;;;21.30;26.80
56713;BME280;42589;45.536;9.032;2023-02-02T15:01:11;100176.94;;;20.81;27.39
56713;BME280;42589;45.536;9.032;2023-02-02T15:13:59;100170.59;;;21.72;27.07
56713;BME280;42589;45.536;9.032;2023-02-02T15:20:45;100171.25;;;21.16;27.82
56713;BME280;42589;45.536;9.032;2023-02-02T15:23:47;100164.59;;;21.05;27.56
56713;BME280;42589;45.536;9.032;2023-02-02T15:26:49;100163.72;;;21.18;26.86
56713;BME280;42589;45.536;9.032;2023-02-02T15:30:02;100173.59;;;20.86;27.16
56713;BME280;42589;45.536;9.032;2023-02-02T15:33:22;100188.69;;;20.01;28.29
56713;BME280;42589;45.536;9.032;2023-02-02T15:36:31;100201.63;;;20.32;28.46
56713;BME280;42589;45.536;9.032;2023-02-02T15:39:39;100195.16;;;20.99;27.60
56713;BME280;42589;45.536;9.032;2023-02-02T15:42:45;100201.63;;;20.38;28.88
56713;BME280;42589;45.536;9.032;2023-02-02T15:46:01;100205.75;;;20.08;29.49
56713;BME280;42589;45.536;9.032;2023-02-02T15:52:23;100191.22;;;20.09;29.76
56713;BME280;42589;45.536;9.032;2023-02-02T15:55:33;100188.09;;;20.05;29.80
56713;BME280;42589;45.536;9.032;2023-02-02T15:58:37;100200.97;;;20.10;29.90
56713;BME280;42589;45.536;9.032;2023-02-02T16:01:46;100193.50;;;20.12;29.70
56713;BME280;42589;45.536;9.032;2023-02-02T16:04:48;100195.19;;;19.17;30.76
56713;BME280;42589;45.536;9.032;2023-02-02T16:07:49;100208.44;;;19.60;30.68
56713;BME280;42589;45.536;9.032;2023-02-02T16:11:14;100210.78;;;20.37;29.55
56713;BME280;42589;45.536;9.032;2023-02-02T16:14:15;100209.38;;;19.32;30.92
56713;BME280;42589;45.536;9.032;2023-02-02T16:17:20;100211.44;;;18.95;31.29
56713;BME280;42589;45.536;9.032;2023-02-02T16:20:21;100215.28;;;18.37;32.07
56713;BME280;42589;45.536;9.032;2023-02-02T16:23:27;100204.59;;;18.43;32.15
56713;BME280;42589;45.536;9.032;2023-02-02T16:26:31;100231.78;;;17.91;32.91
56713;BME280;42589;45.536;9.032;2023-02-02T16:29:33;100216.97;;;17.65;33.11
56713;BME280;42589;45.536;9.032;2023-02-02T16:32:37;100236.13;;;17.92;33.08
56713;BME280;42589;45.536;9.032;2023-02-02T16:35:38;100232.16;;;18.24;32.66
56713;BME280;42589;45.536;9.032;2023-02-02T16:38:40;100222.19;;;17.37;33.37
56713;BME280;42589;45.536;9.032;2023-02-02T16:41:41;100234.47;;;17.91;32.72
56713;BME280;42589;45.536;9.032;2023-02-02T16:44:45;100229.03;;;17.54;32.93
56713;BME280;42589;45.536;9.032;2023-02-02T16:47:47;100219.41;;;17.30;33.26
56713;BME280;42589;45.536;9.032;2023-02-02T16:54:18;100237.41;;;17.30;33.31
56713;BME280;42589;45.536;9.032;2023-02-02T16:57:23;100235.53;;;17.30;33.39
56713;BME280;42589;45.536;9.032;2023-02-02T17:00:27;100249.25;;;17.35;33.47
56713;BME280;42589;45.536;9.032;2023-02-02T17:03:32;100251.34;;;16.96;33.64
56713;BME280;42589;45.536;9.032;2023-02-02T17:06:34;100268.34;;;17.26;33.38
56713;BME280;42589;45.536;9.032;2023-02-02T17:09:42;100275.84;;;17.30;33.09
56713;BME280;42589;45.536;9.032;2023-02-02T17:12:44;100263.41;;;17.14;33.08
56713;BME280;42589;45.536;9.032;2023-02-02T17:15:51;100291.63;;;16.96;33.72
56713;BME280;42589;45.536;9.032;2023-02-02T17:18:52;100287.94;;;17.11;33.36
56713;BME280;42589;45.536;9.032;2023-02-02T17:21:54;100291.78;;;16.71;34.25
56713;BME280;42589;45.536;9.032;2023-02-02T17:24:55;100291.88;;;17.24;33.27
56713;BME280;42589;45.536;9.032;2023-02-02T17:27:59;100276.00;;;17.14;33.04
56713;BME280;42589;45.536;9.032;2023-02-02T17:31:09;100297.09;;;17.02;33.05
56713;BME280;42589;45.536;9.032;2023-02-02T17:34:14;100290.81;;;16.72;33.33
56713;BME280;42589;45.536;9.032;2023-02-02T17:37:14;100306.03;;;17.47;32.52
56713;BME280;42589;45.536;9.032;2023-02-02T17:40:17;100311.03;;;16.60;33.71
56713;BME280;42589;45.536;9.032;2023-02-02T17:43:18;100312.34;;;16.87;33.66
56713;BME280;42589;45.536;9.032;2023-02-02T17:46:19;100308.94;;;17.60;32.23
56713;BME280;42589;45.536;9.032;2023-02-02T17:49:20;100297.88;;;16.42;33.79
56713;BME280;42589;45.536;9.032;2023-02-02T17:52:21;100310.97;;;17.29;32.40
56713;BME280;42589;45.536;9.032;2023-02-02T17:55:36;100308.66;;;16.88;32.96
56713;BME280;42589;45.536;9.032;2023-02-02T17:58:37;100290.94;;;16.56;33.21
56713;BME280;42589;45.536;9.032;2023-02-02T18:01:39;100303.72;;;17.29;32.55
56713;BME280;42589;45.536;9.032;2023-02-02T18:04:41;100299.16;;;16.54;33.31
56713;BME280;42589;45.536;9.032;2023-02-02T18:07:42;100307.50;;;16.59;33.19